Time;durP1;ratioP1;P1;durP2;ratioP2;P2;SDS_P1;SDS_P2;PMS_P1;PMS_P2;Temp;Humidity;BMP_temperature;BMP_pressure;BME280_temperature;BME280_humidity;BME280_pressure;Samples;Min_cycle;Max_cycle;Signal;HPM_P1;HPM_P2
2022/06/10 00:01:02;;;;;;;5.40;2.13;;;;;;;17.57;47.32;100287.94;5030103;28;20569;-59
2022/06/10 00:03:29;;;;;;;3.40;1.13;;;;;;;17.55;47.48;100286.34;5030387;28;20084;-59
2022/06/10 00:05:59;;;;;;;6.95;1.40;;;;;;;17.52;47.57;100292.75;5030418;28;20076;-58
2022/06/10 00:08:29;;;;;;;4.07;0.85;;;;;;;17.48;47.89;100286.00;5030115;28;20045;-59
2022/06/10 00:10:57;;;;;;;8.98;1.40;;;;;;;17.46;47.70;100285.28;5030500;28;20111;-59
2022/06/10 00:13:27;;;;;;;5.82;1.10;;;;;;;17.43;48.40;100286.34;5030247;28;20115;-59
2022/06/10 00:15:54;;;;;;;10.15;1.65;;;;;;;17.41;48.58;100284.75;5012413;28;20444;-58
2022/06/10 00:18:23;;;;;;;5.20;1.13;;;;;;;17.35;48.57;100288.78;5012380;28;20111;-60
2022/06/10 00:20:49;;;;;;;4.18;1.25;;;;;;;17.31;48.41;100293.47;5012582;28;20053;-57
2022/06/10 00:23:16;;;;;;;3.80;1.27;;;;;;;17.27;48.61;100293.84;5029874;28;20468;-59
2022/06/10 00:25:43;;;;;;;9.57;1.55;;;;;;;17.22;48.78;100295.97;5030112;28;20108;-58
2022/06/10 00:28:10;;;;;;;6.90;0.82;;;;;;;17.16;48.63;100292.81;5012208;28;20046;-57
2022/06/10 00:30:37;;;;;;;6.25;1.15;;;;;;;17.12;49.14;100290.53;5030128;28;20041;-54
2022/06/10 00:33:05;;;;;;;5.53;1.27;;;;;;;17.07;49.46;100290.88;5029706;28;20092;-58
2022/06/10 00:35:32;;;;;;;5.85;1.50;;;;;;;17.03;49.07;100281.41;5030127;28;20049;-58
2022/06/10 00:37:59;;;;;;;5.68;1.23;;;;;;;16.98;49.10;100284.41;5029965;28;20057;-58
2022/06/10 00:40:31;;;;;;;6.28;1.58;;;;;;;16.92;49.14;100285.72;5029633;28;20042;-58
2022/06/10 00:42:58;;;;;;;4.15;1.08;;;;;;;16.90;49.10;100284.16;5029963;28;20064;-58
2022/06/10 00:45:50;;;;;;;6.18;1.30;;;;;;;16.80;49.24;100287.50;5030462;28;20452;-58
2022/06/10 00:48:28;;;;;;;5.13;1.52;;;;;;;16.79;48.99;100295.59;5029869;28;20575;-58
2022/06/10 00:50:57;;;;;;;3.67;1.15;;;;;;;16.79;49.01;100288.44;5029745;28;20103;-58
2022/06/10 00:53:31;;;;;;;6.95;1.13;;;;;;;16.77;49.61;100289.53;5032523;28;20049;-59
2022/06/10 00:56:01;;;;;;;6.35;1.25;;;;;;;16.75;49.32;100286.97;5033282;28;20045;-57
2022/06/10 00:58:42;;;;;;;6.38;1.20;;;;;;;16.70;49.38;100280.34;5033417;28;20107;-56
2022/06/10 01:01:11;;;;;;;4.45;1.33;;;;;;;16.70;49.45;100283.81;5015890;28;20076;-56
2022/06/10 01:03:39;;;;;;;3.67;1.00;;;;;;;16.68;49.32;100283.94;5015512;28;20559;-60
2022/06/10 01:06:05;;;;;;;6.75;1.60;;;;;;;16.66;49.32;100288.53;5015824;28;20049;-57
2022/06/10 01:08:32;;;;;;;5.20;1.63;;;;;;;16.63;49.32;100296.72;5033082;28;20489;-56
2022/06/10 01:11:05;;;;;;;6.57;1.67;;;;;;;16.61;49.54;100289.81;5033211;28;20779;-55
2022/06/10 01:13:55;;;;;;;4.05;1.45;;;;;;;16.54;49.79;100287.63;5033253;28;20057;-58
2022/06/10 01:16:30;;;;;;;5.93;1.70;;;;;;;16.56;49.50;100291.97;5033129;28;20543;-59
2022/06/10 01:18:59;;;;;;;5.07;1.30;;;;;;;16.55;49.79;100299.09;5032897;28;20479;-57
2022/06/10 01:21:45;;;;;;;4.40;1.20;;;;;;;16.53;49.61;100296.53;5033000;28;20045;-57
2022/06/10 01:24:35;;;;;;;6.90;1.55;;;;;;;16.51;49.85;100289.66;5032831;28;20049;-57
2022/06/10 01:27:48;;;;;;;6.13;1.25;;;;;;;16.46;50.00;100284.69;5032955;28;20053;-58
2022/06/10 01:30:35;;;;;;;6.32;1.63;;;;;;;16.47;50.19;100293.50;5032345;28;20049;-58
2022/06/10 01:33:08;;;;;;;4.43;1.33;;;;;;;16.47;50.15;100282.84;5032988;28;20046;-57
2022/06/10 01:36:07;;;;;;;4.30;1.38;;;;;;;16.46;50.05;100290.00;5032868;28;20045;-58
2022/06/10 01:38:46;;;;;;;3.13;1.20;;;;;;;16.44;49.93;100286.59;5027874;28;20071;-58
2022/06/10 01:41:32;;;;;;;4.30;1.38;;;;;;;16.41;49.93;100282.34;5032446;28;20458;-58
2022/06/10 01:44:23;;;;;;;6.07;1.92;;;;;;;16.40;50.32;100285.13;5014838;28;20049;-59
2022/06/10 01:46:58;;;;;;;4.35;1.40;;;;;;;16.41;50.11;100278.88;5032711;28;20087;-55
2022/06/10 01:49:30;;;;;;;4.43;1.70;;;;;;;16.38;50.29;100281.75;5014553;28;20057;-50
2022/06/10 01:52:05;;;;;;;3.25;1.20;;;;;;;16.36;50.22;100273.03;5014526;28;20088;-55
2022/06/10 01:54:48;;;;;;;5.13;1.55;;;;;;;16.34;50.14;100275.78;5014874;28;20157;-51
2022/06/10 01:57:24;;;;;;;5.53;1.80;;;;;;;16.28;50.63;100273.59;5031986;28;20045;-54
2022/06/10 01:59:59;;;;;;;6.20;1.60;;;;;;;16.24;50.89;100285.41;5032000;28;20103;-57
2022/06/10 02:02:33;;;;;;;8.65;2.03;;;;;;;16.22;50.93;100288.16;5014470;28;20478;-59
2022/06/10 02:05:04;;;;;;;6.15;1.60;;;;;;;16.21;50.96;100288.25;5032013;28;20136;-58
2022/06/10 02:07:35;;;;;;;7.47;1.60;;;;;;;16.18;50.89;100288.50;5031941;28;20390;-59
2022/06/10 02:10:09;;;;;;;6.18;1.80;;;;;;;16.14;51.46;100287.88;5014178;28;20049;-58
2022/06/10 02:12:41;;;;;;;9.75;2.33;;;;;;;16.13;51.39;100286.19;5031756;28;20046;-58
2022/06/10 02:15:16;;;;;;;4.03;1.70;;;;;;;16.10;52.00;100283.72;5032165;28;20184;-57
2022/06/10 02:17:50;;;;;;;6.10;2.20;;;;;;;16.07;52.26;100291.94;5031656;28;20092;-58
2022/06/10 02:20:25;;;;;;;6.75;2.80;;;;;;;16.05;52.45;100292.03;5031527;28;20053;-58
2022/06/10 02:22:54;;;;;;;7.38;2.80;;;;;;;16.03;52.34;100291.28;5031594;28;20456;-57
2022/06/10 02:25:25;;;;;;;6.43;2.50;;;;;;;16.00;52.53;100292.38;5014219;28;20054;-56
2022/06/10 02:27:57;;;;;;;10.90;2.97;;;;;;;15.97;52.77;100291.75;5014239;28;20456;-58
2022/06/10 02:30:51;;;;;;;10.77;3.00;;;;;;;15.89;53.40;100293.09;5013990;28;20053;-56
2022/06/10 02:33:18;;;;;;;6.00;2.95;;;;;;;15.91;52.47;100300.94;5013513;28;20138;-56
2022/06/10 02:35:56;;;;;;;4.88;2.28;;;;;;;15.85;53.49;100301.41;5031732;28;20540;-56
2022/06/10 02:38:45;;;;;;;7.07;2.45;;;;;;;15.80;53.58;100298.19;5013742;28;20096;-59
2022/06/10 02:41:21;;;;;;;5.30;2.45;;;;;;;15.82;53.64;100299.81;5031331;28;20068;-59
2022/06/10 02:44:05;;;;;;;9.55;2.97;;;;;;;15.76;54.18;100303.75;5031354;28;20119;-59
2022/06/10 02:46:43;;;;;;;6.30;3.65;;;;;;;15.74;54.88;100296.84;5013640;28;20057;-58
2022/06/10 02:49:15;;;;;;;10.13;4.70;;;;;;;15.73;54.85;100298.66;5031183;28;20041;-58
2022/06/10 02:51:42;;;;;;;7.07;3.63;;;;;;;15.72;54.57;100310.22;5031193;28;20460;-59
2022/06/10 02:54:16;;;;;;;11.35;4.15;;;;;;;15.70;55.74;100308.63;5031066;28;20108;-58
2022/06/10 02:56:42;;;;;;;8.18;3.95;;;;;;;15.71;54.88;100310.31;5013325;28;20053;-59
2022/06/10 03:02:22;;;;;;;5.30;3.45;;;;;;;15.65;55.66;100303.63;5031205;28;20501;-58
2022/06/10 03:05:07;;;;;;;;;;;;;;;15.70;54.62;100313.94;5031591;28;20068;-56
2022/06/10 03:07:43;;;;;;;7.15;3.40;;;;;;;15.71;55.44;100312.97;5031106;28;19921;-58
2022/06/10 03:10:32;;;;;;;5.85;3.90;;;;;;;15.70;55.39;100304.16;5030490;28;20103;-58
2022/06/10 03:13:19;;;;;;;8.90;3.90;;;;;;;15.68;55.61;100311.38;5030841;28;20061;-59
2022/06/10 03:16:04;;;;;;;8.32;3.45;;;;;;;15.66;56.01;100307.97;5030399;28;20057;-58
2022/06/10 03:18:46;;;;;;;9.52;3.60;;;;;;;15.65;56.13;100308.94;5013031;28;20133;-58
2022/06/10 03:21:36;;;;;;;7.07;3.40;;;;;;;15.70;55.26;100309.47;5030871;28;20088;-58
2022/06/10 03:24:14;;;;;;;4.70;3.00;;;;;;;15.71;55.04;100310.31;5030571;28;20505;-58
2022/06/10 03:26:57;;;;;;;6.40;3.40;;;;;;;15.67;56.46;100312.34;5030524;28;20193;-59
2022/06/10 03:29:27;;;;;;;10.10;4.22;;;;;;;15.71;56.20;100310.31;5012897;28;20119;-58
2022/06/10 03:32:00;;;;;;;6.75;3.72;;;;;;;15.71;56.60;100311.19;5013061;28;20120;-58
2022/06/10 03:34:33;;;;;;;11.38;3.70;;;;;;;15.73;56.39;100308.41;5030794;28;20156;-58
2022/06/10 03:37:01;;;;;;;;;;;;;;;15.75;55.25;100302.03;5031120;28;20053;-59
2022/06/10 03:39:29;;;;;;;6.13;2.90;;;;;;;15.83;55.08;100313.91;5029013;28;19924;-57
2022/06/10 03:42:05;;;;;;;12.10;3.40;;;;;;;15.81;55.73;100311.38;5012946;28;20119;-58
2022/06/10 03:44:32;;;;;;;6.25;3.78;;;;;;;15.83;55.35;100313.91;5030438;28;20099;-58
2022/06/10 03:46:59;;;;;;;7.50;3.90;;;;;;;15.84;55.62;100305.84;5030690;28;20103;-58
2022/06/10 03:49:33;;;;;;;9.85;4.05;;;;;;;15.85;56.46;100314.69;5030405;28;20468;-57
2022/06/10 03:52:01;;;;;;;7.72;3.40;;;;;;;15.89;55.76;100318.81;5030482;28;20041;-58
2022/06/10 03:54:27;;;;;;;10.65;4.47;;;;;;;15.90;56.15;100316.03;5030578;28;20057;-59
2022/06/10 03:56:54;;;;;;;7.65;4.43;;;;;;;15.94;56.08;100316.72;5030480;28;20061;-57
2022/06/10 03:59:20;;;;;;;8.50;4.38;;;;;;;15.97;56.19;100316.50;5030467;28;20456;-60
2022/06/10 04:01:47;;;;;;;9.30;4.00;;;;;;;15.97;56.21;100324.47;5029936;28;20744;-59
2022/06/10 04:04:14;;;;;;;5.85;4.05;;;;;;;15.98;56.47;100318.19;5030216;28;20204;-59
2022/06/10 04:06:41;;;;;;;8.88;4.45;;;;;;;15.99;56.64;100313.72;5029286;28;20089;-58
2022/06/10 04:09:24;;;;;;;5.70;3.95;;;;;;;15.99;56.73;100319.88;5029857;28;20441;-58
2022/06/10 04:11:51;;;;;;;8.88;5.07;;;;;;;15.99;56.81;100322.53;5030154;28;20053;-59
2022/06/10 04:14:17;;;;;;;9.73;4.53;;;;;;;15.98;56.95;100320.84;5030397;28;20053;-57
2022/06/10 04:16:44;;;;;;;9.00;4.43;;;;;;;15.99;57.18;100329.63;5029807;28;20440;-58
2022/06/10 04:19:12;;;;;;;7.32;4.72;;;;;;;15.98;57.53;100323.50;5029778;28;20088;-58
2022/06/10 04:21:39;;;;;;;11.52;4.90;;;;;;;15.99;57.52;100330.50;5011970;28;20053;-59
2022/06/10 04:24:06;;;;;;;11.55;5.32;;;;;;;15.99;57.63;100335.81;5029734;28;20099;-59
2022/06/10 04:26:33;;;;;;;9.05;5.32;;;;;;;16.00;57.78;100331.34;5029595;28;20057;-60
2022/06/10 04:28:59;;;;;;;7.68;5.90;;;;;;;16.01;57.90;100336.53;5033491;28;20050;-58
2022/06/10 04:31:26;;;;;;;9.48;5.60;;;;;;;16.00;58.06;100340.16;5033864;28;20096;-58
2022/06/10 04:33:52;;;;;;;10.68;6.50;;;;;;;15.99;58.18;100335.81;5034044;28;20517;-55
2022/06/10 04:36:19;;;;;;;8.77;6.25;;;;;;;15.97;58.45;100337.75;5033744;28;20046;-58
2022/06/10 04:38:46;;;;;;;12.82;7.20;;;;;;;15.96;58.70;100338.66;5033536;28;20058;-59
2022/06/10 04:41:13;;;;;;;8.05;7.03;;;;;;;15.95;58.87;100341.44;5016110;28;20053;-59
2022/06/10 04:43:40;;;;;;;12.18;6.68;;;;;;;15.93;59.06;100341.53;5015322;28;20045;-58
2022/06/10 04:46:09;;;;;;;11.82;6.85;;;;;;;15.93;59.54;100341.53;5016087;28;20137;-57
2022/06/10 04:48:35;;;;;;;9.95;7.07;;;;;;;15.95;59.35;100336.97;5032789;28;20060;-60
2022/06/10 04:51:03;;;;;;;10.68;7.22;;;;;;;15.96;59.52;100335.19;5033163;28;20065;-59
2022/06/10 04:53:29;;;;;;;7.90;6.70;;;;;;;15.97;59.65;100332.44;5033132;28;20049;-58
2022/06/10 04:55:56;;;;;;;9.32;6.28;;;;;;;16.00;59.51;100331.34;5033737;28;20062;-59
2022/06/10 04:58:22;;;;;;;9.68;6.57;;;;;;;16.02;59.61;100334.75;5033291;28;20690;-58
2022/06/10 05:00:49;;;;;;;11.70;6.88;;;;;;;16.04;59.75;100337.28;5033106;28;20050;-57
2022/06/10 05:03:17;;;;;;;15.02;7.53;;;;;;;16.06;59.96;100338.03;5033091;28;20432;-58
2022/06/10 05:05:44;;;;;;;10.20;6.85;;;;;;;16.10;59.92;100332.41;5033387;28;20046;-58
2022/06/10 05:08:14;;;;;;;10.93;6.88;;;;;;;16.12;60.42;100337.59;5032711;28;20547;-58
2022/06/10 05:10:40;;;;;;;10.18;6.57;;;;;;;16.14;59.98;100341.84;5033204;28;20061;-60
2022/06/10 05:13:07;;;;;;;12.23;6.82;;;;;;;16.16;60.11;100336.44;5033071;28;20123;-58
2022/06/10 05:15:34;;;;;;;8.25;7.03;;;;;;;16.19;60.19;100346.84;5032961;28;20054;-58
2022/06/10 05:18:01;;;;;;;10.32;6.53;;;;;;;16.21;60.51;100338.72;5033045;28;20103;-59
2022/06/10 05:20:46;;;;;;;13.90;7.15;;;;;;;16.22;61.30;100341.28;5032966;28;20107;-58
2022/06/10 05:23:15;;;;;;;11.85;7.25;;;;;;;16.33;60.85;100347.66;5033044;28;20464;-59
2022/06/10 05:25:42;;;;;;;14.38;7.35;;;;;;;16.40;60.60;100351.53;5033120;28;20046;-58
2022/06/10 05:28:12;;;;;;;12.63;7.13;;;;;;;16.45;60.66;100345.91;5015068;28;20054;-60
2022/06/10 05:30:39;;;;;;;12.95;7.45;;;;;;;16.53;60.68;100354.19;5032854;28;20119;-59
2022/06/10 05:33:07;;;;;;;11.50;7.22;;;;;;;16.59;60.69;100356.38;5032948;28;20123;-58
2022/06/10 05:35:35;;;;;;;14.55;7.60;;;;;;;16.65;60.84;100357.75;5015327;28;20053;-59
2022/06/10 05:38:02;;;;;;;11.43;8.00;;;;;;;16.72;60.94;100358.13;5014620;28;20104;-58
2022/06/10 05:40:31;;;;;;;11.25;6.80;;;;;;;16.77;60.71;100359.50;5032425;28;20053;-59
2022/06/10 05:42:59;;;;;;;11.95;7.13;;;;;;;16.83;60.36;100365.31;5032383;28;20111;-59
2022/06/10 05:45:26;;;;;;;8.50;6.60;;;;;;;16.87;60.22;100350.84;5032558;28;20459;-58
2022/06/10 05:47:55;;;;;;;16.00;8.13;;;;;;;16.89;60.54;100356.88;5014963;28;20049;-60
2022/06/10 05:50:27;;;;;;;8.57;6.60;;;;;;;16.92;60.25;100359.31;5032145;28;20140;-58
2022/06/10 05:52:55;;;;;;;11.25;7.15;;;;;;;16.94;59.93;100365.38;5032478;28;20064;-59
2022/06/10 05:55:22;;;;;;;11.23;7.60;;;;;;;16.97;60.19;100370.47;5014583;28;20100;-56
2022/06/10 05:57:51;;;;;;;11.05;7.05;;;;;;;17.00;60.45;100372.91;5014876;28;20081;-58
2022/06/10 06:00:22;;;;;;;9.05;7.05;;;;;;;17.05;61.28;100375.25;5032027;28;20060;-60
2022/06/10 06:02:49;;;;;;;10.65;6.40;;;;;;;17.16;60.57;100377.94;5014855;28;20075;-57
2022/06/10 06:05:20;;;;;;;10.10;6.90;;;;;;;17.25;60.56;100370.25;5014691;28;20041;-58
2022/06/10 06:07:49;;;;;;;10.68;7.22;;;;;;;17.36;60.42;100380.06;5031960;28;20059;-58
2022/06/10 06:10:19;;;;;;;12.90;7.07;;;;;;;17.45;60.46;100377.56;5031912;28;20057;-60
2022/06/10 06:12:46;;;;;;;10.35;6.70;;;;;;;17.56;60.11;100375.88;5014599;28;20049;-59
2022/06/10 06:15:13;;;;;;;11.85;6.10;;;;;;;17.65;60.06;100377.84;5031779;28;20410;-58
2022/06/10 06:17:41;;;;;;;9.20;6.03;;;;;;;17.77;60.03;100378.72;5031863;28;20052;-61
2022/06/10 06:20:12;;;;;;;10.43;5.75;;;;;;;17.87;60.13;100380.66;5031557;28;20057;-58
2022/06/10 06:22:39;;;;;;;11.85;5.72;;;;;;;17.96;59.66;100383.47;5031845;28;20049;-59
2022/06/10 06:25:06;;;;;;;9.73;5.65;;;;;;;18.05;59.22;100383.72;5031665;28;20595;-59
2022/06/10 06:27:33;;;;;;;12.57;5.95;;;;;;;18.13;59.27;100380.47;5031687;28;20057;-59
2022/06/10 06:30:01;;;;;;;10.82;6.38;;;;;;;18.18;59.13;100379.13;5031425;28;20053;-59
2022/06/10 06:32:28;;;;;;;12.82;6.20;;;;;;;18.23;58.85;100384.94;5031689;28;20480;-60
2022/06/10 06:34:54;;;;;;;14.23;6.25;;;;;;;18.28;58.84;100389.06;5031469;28;20053;-61
2022/06/10 06:37:21;;;;;;;9.50;5.32;;;;;;;18.32;58.37;100377.19;5031710;28;20621;-58
2022/06/10 06:39:48;;;;;;;9.43;5.07;;;;;;;18.39;58.63;100390.88;5031449;28;20083;-59
2022/06/10 06:42:15;;;;;;;11.50;5.13;;;;;;;18.45;58.74;100385.03;5031537;28;20123;-59
2022/06/10 06:44:43;;;;;;;11.68;5.50;;;;;;;18.54;59.11;100392.28;5031489;28;20057;-60
2022/06/10 06:47:30;;;;;;;10.70;4.70;;;;;;;18.67;58.34;100392.16;5031603;28;20123;-59
2022/06/10 06:49:57;;;;;;;11.35;4.90;;;;;;;18.81;58.56;100391.03;5030226;28;20056;-60
2022/06/10 06:52:23;;;;;;;7.82;4.18;;;;;;;18.95;58.42;100397.88;5031376;28;20045;-59
2022/06/10 06:54:50;;;;;;;12.48;4.22;;;;;;;19.09;57.67;100390.56;5031410;28;20049;-58
2022/06/10 06:57:18;;;;;;;9.02;4.00;;;;;;;19.21;57.53;100396.72;5031197;28;20093;-59
2022/06/10 06:59:44;;;;;;;6.43;3.30;;;;;;;19.32;57.16;100387.84;5030900;28;20561;-59
2022/06/10 07:02:11;;;;;;;14.30;4.05;;;;;;;19.41;56.98;100397.72;5030854;28;20084;-60
2022/06/10 07:04:37;;;;;;;7.30;3.75;;;;;;;19.52;56.71;100400.31;5031207;28;20053;-59
2022/06/10 07:07:05;;;;;;;9.35;3.55;;;;;;;19.61;56.32;100404.03;5030973;28;20122;-58
2022/06/10 07:09:32;;;;;;;8.48;3.58;;;;;;;19.69;56.21;100406.03;5013294;28;20063;-58
2022/06/10 07:11:58;;;;;;;10.50;3.97;;;;;;;19.77;55.78;100402.72;5030704;28;20060;-61
2022/06/10 07:14:25;;;;;;;11.18;4.07;;;;;;;19.80;55.16;100407.78;5030906;28;20088;-58
2022/06/10 07:16:52;;;;;;;7.53;3.33;;;;;;;19.83;55.51;100410.22;5030648;28;20464;-58
2022/06/10 07:19:20;;;;;;;8.13;3.47;;;;;;;19.85;55.12;100413.59;5030622;28;20050;-60
2022/06/10 07:21:46;;;;;;;9.55;3.75;;;;;;;19.86;55.24;100412.63;5013291;28;20080;-59
2022/06/10 07:24:19;;;;;;;9.80;3.75;;;;;;;19.88;54.89;100421.34;5030941;28;20108;-59
2022/06/10 07:26:46;;;;;;;9.20;3.70;;;;;;;19.90;55.15;100419.41;5030813;28;20049;-59
2022/06/10 07:29:13;;;;;;;10.85;3.65;;;;;;;19.93;55.02;100427.13;5030157;28;20683;-59
2022/06/10 07:31:41;;;;;;;10.32;3.75;;;;;;;19.96;55.05;100425.19;5030403;28;20052;-59
2022/06/10 07:34:09;;;;;;;9.63;3.50;;;;;;;20.00;54.85;100426.66;5013199;28;20136;-58
2022/06/10 07:36:37;;;;;;;10.90;3.42;;;;;;;20.02;54.67;100425.53;5030804;28;20132;-58
2022/06/10 07:39:03;;;;;;;7.95;3.05;;;;;;;20.04;54.75;100426.22;5030222;28;20493;-60
2022/06/10 07:44:19;;;;;;;12.77;3.90;;;;;;;20.10;54.53;100432.03;5030464;28;20501;-60
2022/06/10 07:46:48;;;;;;;9.95;4.22;;;;;;;20.13;54.76;100432.63;5030777;28;20049;-59
2022/06/10 07:49:15;;;;;;;11.30;3.95;;;;;;;20.17;54.56;100436.72;5030245;28;20046;-59
2022/06/10 07:51:42;;;;;;;10.45;3.60;;;;;;;20.20;55.06;100435.59;5030450;28;20524;-60
2022/06/10 07:54:09;;;;;;;6.88;2.97;;;;;;;20.25;55.09;100432.50;5030062;28;20057;-59
2022/06/10 07:56:37;;;;;;;12.75;3.92;;;;;;;20.31;55.23;100432.00;5013072;28;20111;-59
2022/06/10 07:59:04;;;;;;;7.32;3.38;;;;;;;20.41;55.29;100434.72;5012589;28;20057;-60
2022/06/10 08:01:31;;;;;;;11.88;3.15;;;;;;;20.49;55.01;100452.75;5014356;28;20048;-58
2022/06/10 08:03:58;;;;;;;10.00;3.25;;;;;;;20.56;54.25;100451.22;5034124;28;20047;-60
2022/06/10 08:06:28;;;;;;;8.13;3.17;;;;;;;20.61;54.09;100442.78;5034397;28;20088;-58
2022/06/10 08:08:55;;;;;;;7.65;2.70;;;;;;;20.65;53.63;100452.22;5016266;28;20543;-59
2022/06/10 08:11:23;;;;;;;10.73;2.72;;;;;;;20.66;53.60;100446.75;5016937;28;20042;-59
2022/06/10 08:13:49;;;;;;;8.48;3.15;;;;;;;20.64;53.63;100453.22;5033980;28;20092;-58
2022/06/10 08:16:18;;;;;;;13.88;3.53;;;;;;;20.64;53.90;100454.03;5034131;28;20054;-58
2022/06/10 08:18:46;;;;;;;8.07;2.58;;;;;;;20.66;53.67;100467.28;5033750;28;20479;-59
2022/06/10 08:24:01;;;;;;;6.65;2.70;;;;;;;20.64;53.66;100458.56;5034191;28;20049;-59
2022/06/10 08:26:28;;;;;;;8.10;2.80;;;;;;;20.62;53.77;100458.69;5033857;28;20064;-58
2022/06/10 08:28:58;;;;;;;6.78;2.60;;;;;;;20.61;53.48;100458.81;5033541;28;20092;-59
2022/06/10 08:31:25;;;;;;;5.55;2.60;;;;;;;20.57;53.45;100458.25;5034022;28;20061;-59
2022/06/10 08:33:52;;;;;;;8.57;3.20;;;;;;;20.54;53.73;100462.06;5033781;28;20053;-59
2022/06/10 08:36:19;;;;;;;6.40;2.83;;;;;;;20.50;53.34;100465.13;5034041;28;20432;-60
2022/06/10 08:38:49;;;;;;;5.63;2.67;;;;;;;20.41;53.48;100453.44;5033667;28;20059;-60
2022/06/10 08:41:44;;;;;;;6.97;2.60;;;;;;;20.29;53.68;100460.66;5033547;28;20061;-58
2022/06/10 08:44:24;;;;;;;6.43;2.20;;;;;;;20.18;53.98;100465.13;5033718;28;20056;-59
2022/06/10 08:47:29;;;;;;;7.78;2.88;;;;;;;20.12;53.79;100467.50;5033814;28;20053;-59
2022/06/10 08:50:23;;;;;;;7.40;2.50;;;;;;;19.97;54.77;100473.16;4933551;29;20063;-59
2022/06/10 08:53:27;;;;;;;5.65;2.67;;;;;;;19.89;54.62;100471.13;4933687;29;20068;-59
2022/06/10 08:56:11;;;;;;;7.90;2.85;;;;;;;19.84;54.93;100469.84;5024836;28;20099;-60
2022/06/10 08:58:49;;;;;;;4.97;2.35;;;;;;;19.83;55.06;100470.81;5033416;28;20065;-60
2022/06/10 09:01:21;;;;;;;5.45;2.53;;;;;;;19.81;55.21;100467.44;5033111;28;20057;-59
2022/06/10 09:04:24;;;;;;;5.28;2.80;;;;;;;19.74;55.41;100473.28;5033555;28;20050;-57
2022/06/10 09:06:54;;;;;;;7.45;2.40;;;;;;;19.80;55.93;100466.56;5033186;28;20049;-59
2022/06/10 09:09:25;;;;;;;8.13;2.45;;;;;;;19.81;56.10;100472.78;5015607;28;20509;-58
2022/06/10 09:12:11;;;;;;;6.32;2.40;;;;;;;19.82;56.37;100469.13;5033009;28;20068;-55
2022/06/10 09:14:38;;;;;;;6.47;2.08;;;;;;;19.86;56.52;100473.22;5015056;28;20115;-58
2022/06/10 09:17:15;;;;;;;7.75;2.90;;;;;;;19.90;56.66;100477.31;5033003;28;20045;-59
2022/06/10 09:20:16;;;;;;;4.50;2.13;;;;;;;19.87;57.45;100461.53;5032781;28;20060;-59
2022/06/10 09:22:55;;;;;;;5.53;2.20;;;;;;;19.90;57.41;100466.63;5032868;28;20603;-59
2022/06/10 09:25:26;;;;;;;4.63;2.28;;;;;;;19.91;56.95;100463.84;5032841;28;20436;-59
2022/06/10 09:27:58;;;;;;;4.38;2.05;;;;;;;19.88;57.66;100458.75;5032835;28;20049;-59
2022/06/10 09:30:45;;;;;;;5.72;2.08;;;;;;;19.84;58.01;100459.16;5032565;28;20100;-59
2022/06/10 09:33:29;;;;;;;5.50;2.50;;;;;;;19.84;59.15;100457.31;5032758;28;20107;-61
2022/06/10 09:36:30;;;;;;;5.78;2.50;;;;;;;19.88;58.98;100456.06;5015288;28;20386;-59
2022/06/10 09:42:13;;;;;;;7.03;2.70;;;;;;;20.16;59.67;100456.41;5032504;28;20103;-60
2022/06/10 09:44:46;;;;;;;5.25;2.38;;;;;;;20.29;58.80;100455.31;5032493;28;20049;-59
2022/06/10 09:47:37;;;;;;;3.67;2.38;;;;;;;20.40;58.41;100457.91;5032357;28;20053;-59
2022/06/10 09:50:20;;;;;;;6.03;2.53;;;;;;;20.48;57.63;100451.88;5032531;28;20058;-59
2022/06/10 09:53:06;;;;;;;6.40;2.50;;;;;;;20.55;57.51;100460.22;5014887;28;20049;-59
2022/06/10 09:55:52;;;;;;;8.73;2.58;;;;;;;20.52;57.90;100447.97;5032298;28;20531;-59
2022/06/10 09:58:30;;;;;;;7.35;2.70;;;;;;;20.61;58.75;100453.47;5031813;28;20104;-60
2022/06/10 10:01:09;;;;;;;5.45;2.67;;;;;;;20.73;58.73;100446.19;5014587;28;20053;-59
2022/06/10 10:03:44;;;;;;;5.38;2.97;;;;;;;20.87;58.70;100443.16;5032165;28;20104;-59
2022/06/10 10:06:35;;;;;;;4.80;2.75;;;;;;;21.02;57.86;100446.28;5032232;28;20053;-59
2022/06/10 10:09:18;;;;;;;7.05;2.88;;;;;;;21.22;57.89;100443.63;5031823;28;20053;-59
2022/06/10 10:11:49;;;;;;;6.50;2.30;;;;;;;21.40;58.34;100437.56;5032156;28;20482;-58
2022/06/10 10:14:30;;;;;;;7.20;2.50;;;;;;;21.61;57.19;100437.41;5032315;28;20057;-59
2022/06/10 10:17:04;;;;;;;5.20;2.13;;;;;;;21.85;57.22;100441.47;5032030;28;20854;-59
2022/06/10 10:20:09;;;;;;;6.07;2.33;;;;;;;22.05;56.43;100441.44;5031846;28;20049;-60
2022/06/10 10:22:46;;;;;;;9.82;2.92;;;;;;;22.29;56.33;100437.38;5032059;28;20053;-60
2022/06/10 10:25:19;;;;;;;6.70;2.42;;;;;;;22.41;54.52;100444.25;5031730;28;20045;-59
2022/06/10 10:27:48;;;;;;;7.03;3.13;;;;;;;22.57;54.70;100450.84;5014091;28;20060;-59
2022/06/10 10:30:20;;;;;;;4.18;2.47;;;;;;;22.66;53.59;100439.22;5013798;28;20409;-59
2022/06/10 10:32:53;;;;;;;5.72;2.90;;;;;;;22.73;53.74;100445.66;5014013;28;20099;-58
2022/06/10 10:35:27;;;;;;;7.75;2.72;;;;;;;22.83;53.74;100445.59;5031783;28;20053;-59
2022/06/10 10:38:27;;;;;;;6.13;3.10;;;;;;;22.93;54.17;100434.81;5031657;28;20696;-59
2022/06/10 10:40:54;;;;;;;7.95;2.60;;;;;;;23.12;53.20;100441.00;5031359;28;20053;-59
2022/06/10 10:43:28;;;;;;;6.93;2.80;;;;;;;23.16;51.51;100431.66;5031309;28;20049;-59
2022/06/10 10:46:03;;;;;;;5.95;2.63;;;;;;;23.20;52.57;100438.41;5031438;28;20053;-59
2022/06/10 10:48:47;;;;;;;8.88;3.42;;;;;;;23.24;51.66;100434.41;5031012;28;20049;-59
2022/06/10 10:51:13;;;;;;;10.35;2.63;;;;;;;23.41;52.96;100434.59;5013773;28;20874;-59
2022/06/10 10:54:16;;;;;;;7.35;3.10;;;;;;;23.65;52.86;100433.09;5030972;28;20564;-60
2022/06/10 10:56:47;;;;;;;7.70;3.08;;;;;;;23.96;52.38;100429.94;5031227;28;20050;-59
2022/06/10 10:59:32;;;;;;;7.80;2.88;;;;;;;24.21;50.55;100430.09;5030749;28;20103;-61
2022/06/10 11:02:00;;;;;;;5.20;2.67;;;;;;;24.41;50.71;100429.84;5031260;28;20045;-60
2022/06/10 11:04:32;;;;;;;11.57;3.03;;;;;;;24.46;48.81;100428.38;5031243;28;20053;-60
2022/06/10 11:07:10;;;;;;;7.32;3.05;;;;;;;24.48;49.31;100427.34;5031205;28;20140;-60
2022/06/10 11:10:07;;;;;;;8.38;3.15;;;;;;;24.44;49.09;100429.50;5030656;28;20131;-59
2022/06/10 11:12:34;;;;;;;9.32;3.13;;;;;;;24.42;49.34;100428.84;5031054;28;20105;-58
2022/06/10 11:15:15;;;;;;;5.85;2.80;;;;;;;24.32;48.46;100429.81;5030872;28;20476;-59
2022/06/10 11:17:43;;;;;;;7.22;3.40;;;;;;;24.27;48.79;100429.47;5031232;28;20041;-59
2022/06/10 11:20:36;;;;;;;7.32;3.22;;;;;;;24.23;49.10;100420.03;5030421;28;20095;-59
2022/06/10 11:23:09;;;;;;;7.43;2.95;;;;;;;24.29;49.47;100423.94;5030908;28;20053;-60
2022/06/10 11:25:36;;;;;;;8.20;3.30;;;;;;;24.40;50.24;100420.94;5030743;28;20053;-59
2022/06/10 11:28:16;;;;;;;5.32;2.75;;;;;;;24.56;50.96;100427.38;5030532;28;20058;-60
2022/06/10 11:30:48;;;;;;;8.73;3.08;;;;;;;24.82;49.70;100424.56;5013127;28;20091;-60
2022/06/10 11:33:32;;;;;;;5.38;2.65;;;;;;;25.04;49.48;100416.91;5031226;28;20050;-59
2022/06/10 11:36:03;;;;;;;7.78;2.95;;;;;;;25.30;48.54;100417.78;5012573;28;20156;-61
2022/06/10 11:38:32;;;;;;;5.80;2.33;;;;;;;25.42;47.58;100407.50;5030443;28;20053;-58
2022/06/10 11:41:14;;;;;;;7.30;2.15;;;;;;;25.44;45.85;100418.94;5030381;28;20099;-59
2022/06/10 11:43:50;;;;;;;5.38;2.40;;;;;;;25.40;45.42;100417.59;5013277;28;20620;-59
2022/06/10 11:46:25;;;;;;;6.03;2.40;;;;;;;25.29;46.49;100406.16;5030753;28;20049;-58
2022/06/10 11:48:55;;;;;;;6.45;1.92;;;;;;;25.20;46.17;100407.97;5030391;28;20053;-59
2022/06/10 11:51:51;;;;;;;4.85;2.20;;;;;;;25.15;47.95;100404.13;5030507;28;20049;-59
2022/06/10 11:54:39;;;;;;;4.75;1.98;;;;;;;25.20;47.64;100405.28;5030827;28;20049;-60
2022/06/10 12:00:33;;;;;;;5.50;2.13;;;;;;;25.33;46.98;100396.72;5030134;28;20054;-60
2022/06/10 12:03:25;;;;;;;5.93;1.90;;;;;;;25.34;47.50;100401.09;5030411;28;20541;-59
2022/06/10 12:06:01;;;;;;;5.28;1.50;;;;;;;25.40;46.69;100387.94;5030231;28;20057;-59
2022/06/10 12:09:09;;;;;;;7.10;1.75;;;;;;;25.50;46.74;100389.44;5012474;28;20071;-59